sensor_id;sensor_type;location;lat;lon;timestamp;pressure;altitude;pressure_sealevel;temperature;humidity
79415;BME280;68864;44.972;19.612;2023-11-21T00:00:43;100384.00;;;8.28;80.54
79415;BME280;68864;44.972;19.612;2023-11-21T00:03:12;100380.72;;;8.11;81.95
79415;BME280;68864;44.972;19.612;2023-11-21T00:05:40;100382.75;;;8.14;81.21
79415;BME280;68864;44.972;19.612;2023-11-21T00:08:07;100384.16;;;8.08;81.19
79415;BME280;68864;44.972;19.612;2023-11-21T00:10:34;100395.06;;;8.01;81.96
79415;BME280;68864;44.972;19.612;2023-11-21T00:13:03;100394.59;;;7.98;81.98
79415;BME280;68864;44.972;19.612;2023-11-21T00:15:30;100392.28;;;8.01;82.21
79415;BME280;68864;44.972;19.612;2023-11-21T00:17:57;100389.75;;;7.95;82.17
79415;BME280;68864;44.972;19.612;2023-11-21T00:20:25;100390.22;;;7.97;81.89
79415;BME280;68864;44.972;19.612;2023-11-21T00:22:52;100390.56;;;7.96;82.08
79415;BME280;68864;44.972;19.612;2023-11-21T00:25:19;100385.03;;;7.96;81.73
79415;BME280;68864;44.972;19.612;2023-11-21T00:27:46;100391.13;;;8.02;81.30
79415;BME280;68864;44.972;19.612;2023-11-21T00:30:13;100396.13;;;7.96;81.90
79415;BME280;68864;44.972;19.612;2023-11-21T00:32:39;100382.03;;;7.89;81.58
79415;BME280;68864;44.972;19.612;2023-11-21T00:35:07;100399.47;;;8.02;81.57
79415;BME280;68864;44.972;19.612;2023-11-21T00:37:35;100396.69;;;8.02;81.56
79415;BME280;68864;44.972;19.612;2023-11-21T00:40:05;100400.25;;;8.02;82.06
79415;BME280;68864;44.972;19.612;2023-11-21T00:42:32;100399.00;;;7.99;81.48
79415;BME280;68864;44.972;19.612;2023-11-21T00:44:59;100396.22;;;7.99;82.04
79415;BME280;68864;44.972;19.612;2023-11-21T00:47:26;100396.34;;;8.03;81.71
79415;BME280;68864;44.972;19.612;2023-11-21T00:49:53;100402.09;;;7.98;81.94
79415;BME280;68864;44.972;19.612;2023-11-21T00:52:20;100401.06;;;8.03;81.08
79415;BME280;68864;44.972;19.612;2023-11-21T00:54:48;100392.63;;;7.99;81.86
79415;BME280;68864;44.972;19.612;2023-11-21T00:57:15;100392.28;;;8.01;81.31
79415;BME280;68864;44.972;19.612;2023-11-21T00:59:42;100390.41;;;8.05;81.23
79415;BME280;68864;44.972;19.612;2023-11-21T01:02:08;100387.28;;;8.06;81.85
79415;BME280;68864;44.972;19.612;2023-11-21T01:04:36;100390.44;;;7.92;82.52
79415;BME280;68864;44.972;19.612;2023-11-21T01:07:03;100376.69;;;7.96;81.81
79415;BME280;68864;44.972;19.612;2023-11-21T01:09:31;100375.53;;;7.97;82.42
79415;BME280;68864;44.972;19.612;2023-11-21T01:11:59;100360.03;;;7.96;81.57
79415;BME280;68864;44.972;19.612;2023-11-21T01:14:26;100358.31;;;7.91;82.00
79415;BME280;68864;44.972;19.612;2023-11-21T01:16:53;100351.50;;;7.89;82.00
79415;BME280;68864;44.972;19.612;2023-11-21T01:19:20;100355.91;;;7.90;81.79
79415;BME280;68864;44.972;19.612;2023-11-21T01:21:46;100350.69;;;7.88;82.79
79415;BME280;68864;44.972;19.612;2023-11-21T01:24:13;100345.41;;;7.83;82.64
79415;BME280;68864;44.972;19.612;2023-11-21T01:26:39;100346.22;;;7.84;81.58
79415;BME280;68864;44.972;19.612;2023-11-21T01:29:07;100346.44;;;7.79;82.66
79415;BME280;68864;44.972;19.612;2023-11-21T01:31:34;100335.13;;;7.72;83.57
79415;BME280;68864;44.972;19.612;2023-11-21T01:34:01;100332.94;;;7.65;84.40
79415;BME280;68864;44.972;19.612;2023-11-21T01:36:30;100333.75;;;7.66;83.86
79415;BME280;68864;44.972;19.612;2023-11-21T01:38:58;100339.75;;;7.68;84.70
79415;BME280;68864;44.972;19.612;2023-11-21T01:41:25;100339.06;;;7.71;85.27
79415;BME280;68864;44.972;19.612;2023-11-21T01:43:53;100350.03;;;7.67;84.66
79415;BME280;68864;44.972;19.612;2023-11-21T01:46:22;100347.03;;;7.72;84.98
79415;BME280;68864;44.972;19.612;2023-11-21T01:48:50;100347.41;;;7.71;84.37
79415;BME280;68864;44.972;19.612;2023-11-21T01:51:18;100339.75;;;7.68;84.75
79415;BME280;68864;44.972;19.612;2023-11-21T01:53:45;100330.44;;;7.48;86.31
79415;BME280;68864;44.972;19.612;2023-11-21T01:56:13;100326.81;;;7.59;84.43
79415;BME280;68864;44.972;19.612;2023-11-21T01:58:41;100314.03;;;7.43;85.63
79415;BME280;68864;44.972;19.612;2023-11-21T02:01:08;100326.59;;;7.52;84.77
79415;BME280;68864;44.972;19.612;2023-11-21T02:03:38;100316.91;;;7.46;85.33
79415;BME280;68864;44.972;19.612;2023-11-21T02:06:06;100310.81;;;7.41;84.64
79415;BME280;68864;44.972;19.612;2023-11-21T02:08:33;100312.50;;;7.45;85.56
79415;BME280;68864;44.972;19.612;2023-11-21T02:11:00;100317.25;;;7.45;85.49
79415;BME280;68864;44.972;19.612;2023-11-21T02:13:28;100306.88;;;7.42;85.82
79415;BME280;68864;44.972;19.612;2023-11-21T02:15:55;100302.13;;;7.42;85.09
79415;BME280;68864;44.972;19.612;2023-11-21T02:18:21;100306.66;;;7.35;85.57
79415;BME280;68864;44.972;19.612;2023-11-21T02:20:50;100303.75;;;7.43;84.80
79415;BME280;68864;44.972;19.612;2023-11-21T02:23:18;100303.06;;;7.34;85.73
79415;BME280;68864;44.972;19.612;2023-11-21T02:25:45;100300.19;;;7.31;86.50
79415;BME280;68864;44.972;19.612;2023-11-21T02:28:12;100287.84;;;7.16;87.61
79415;BME280;68864;44.972;19.612;2023-11-21T02:30:41;100275.94;;;7.15;86.60
79415;BME280;68864;44.972;19.612;2023-11-21T02:33:08;100269.47;;;7.11;86.33
79415;BME280;68864;44.972;19.612;2023-11-21T02:35:34;100271.00;;;7.09;87.05
79415;BME280;68864;44.972;19.612;2023-11-21T02:38:01;100272.03;;;7.04;86.49
79415;BME280;68864;44.972;19.612;2023-11-21T02:40:29;100277.94;;;7.03;86.78
79415;BME280;68864;44.972;19.612;2023-11-21T02:42:56;100280.22;;;7.01;86.22
79415;BME280;68864;44.972;19.612;2023-11-21T02:45:24;100279.75;;;6.99;87.26
79415;BME280;68864;44.972;19.612;2023-11-21T02:47:51;100284.28;;;7.03;86.25
79415;BME280;68864;44.972;19.612;2023-11-21T02:50:22;100295.22;;;7.00;85.88
79415;BME280;68864;44.972;19.612;2023-11-21T02:52:49;100298.34;;;6.98;86.19
79415;BME280;68864;44.972;19.612;2023-11-21T02:55:16;100298.81;;;6.76;88.61
79415;BME280;68864;44.972;19.612;2023-11-21T02:57:44;100306.31;;;6.88;87.14
79415;BME280;68864;44.972;19.612;2023-11-21T03:00:11;100298.81;;;6.88;86.81
79415;BME280;68864;44.972;19.612;2023-11-21T03:02:40;100298.47;;;6.90;86.60
79415;BME280;68864;44.972;19.612;2023-11-21T03:05:07;100291.78;;;6.91;86.65
79415;BME280;68864;44.972;19.612;2023-11-21T03:07:36;100293.63;;;6.99;85.99
79415;BME280;68864;44.972;19.612;2023-11-21T03:10:03;100287.97;;;6.95;86.40
79415;BME280;68864;44.972;19.612;2023-11-21T03:12:31;100291.41;;;6.92;86.71
79415;BME280;68864;44.972;19.612;2023-11-21T03:14:59;100275.59;;;6.93;86.66
79415;BME280;68864;44.972;19.612;2023-11-21T03:17:27;100271.81;;;6.97;85.74
79415;BME280;68864;44.972;19.612;2023-11-21T03:19:54;100269.16;;;7.01;86.17
79415;BME280;68864;44.972;19.612;2023-11-21T03:22:22;100272.03;;;7.04;85.03
79415;BME280;68864;44.972;19.612;2023-11-21T03:24:49;100270.19;;;7.08;84.86
79415;BME280;68864;44.972;19.612;2023-11-21T03:27:16;100258.19;;;7.04;85.22
79415;BME280;68864;44.972;19.612;2023-11-21T03:29:43;100247.69;;;7.10;85.24
79415;BME280;68864;44.972;19.612;2023-11-21T03:32:12;100266.25;;;7.09;85.31
79415;BME280;68864;44.972;19.612;2023-11-21T03:34:53;100237.53;;;7.02;85.33
79415;BME280;68864;44.972;19.612;2023-11-21T03:37:21;100251.34;;;7.14;84.82
79415;BME280;68864;44.972;19.612;2023-11-21T03:39:48;100257.81;;;7.18;84.41
79415;BME280;68864;44.972;19.612;2023-11-21T03:42:15;100253.53;;;7.21;84.17
79415;BME280;68864;44.972;19.612;2023-11-21T03:44:42;100248.91;;;7.12;84.50
79415;BME280;68864;44.972;19.612;2023-11-21T03:47:09;100242.47;;;7.08;85.29
79415;BME280;68864;44.972;19.612;2023-11-21T03:49:37;100247.69;;;7.10;85.26
79415;BME280;68864;44.972;19.612;2023-11-21T03:52:05;100253.91;;;7.07;84.87
79415;BME280;68864;44.972;19.612;2023-11-21T03:54:33;100243.16;;;7.05;84.69
79415;BME280;68864;44.972;19.612;2023-11-21T03:56:59;100249.88;;;7.04;85.40
79415;BME280;68864;44.972;19.612;2023-11-21T03:59:26;100251.47;;;7.05;84.86
79415;BME280;68864;44.972;19.612;2023-11-21T04:01:55;100248.69;;;7.05;85.21
79415;BME280;68864;44.972;19.612;2023-11-21T04:04:22;100245.25;;;7.08;85.22
79415;BME280;68864;44.972;19.612;2023-11-21T04:06:50;100249.63;;;7.09;84.85
79415;BME280;68864;44.972;19.612;2023-11-21T04:09:18;100242.94;;;7.10;84.67
79415;BME280;68864;44.972;19.612;2023-11-21T04:11:45;100249.16;;;7.07;85.05
79415;BME280;68864;44.972;19.612;2023-11-21T04:14:13;100242.72;;;7.03;85.34
79415;BME280;68864;44.972;19.612;2023-11-21T04:16:40;100257.38;;;7.04;84.55
79415;BME280;68864;44.972;19.612;2023-11-21T04:19:07;100260.25;;;6.95;85.46
79415;BME280;68864;44.972;19.612;2023-11-21T04:21:34;100256.44;;;7.00;85.02
79415;BME280;68864;44.972;19.612;2023-11-21T04:24:03;100253.34;;;7.01;84.34
79415;BME280;68864;44.972;19.612;2023-11-21T04:26:30;100254.25;;;7.05;84.79
79415;BME280;68864;44.972;19.612;2023-11-21T04:28:57;100248.69;;;7.05;84.25
79415;BME280;68864;44.972;19.612;2023-11-21T04:31:24;100240.38;;;7.05;84.68
79415;BME280;68864;44.972;19.612;2023-11-21T04:33:50;100233.34;;;7.08;84.11
79415;BME280;68864;44.972;19.612;2023-11-21T04:36:17;100241.78;;;6.99;84.90
79415;BME280;68864;44.972;19.612;2023-11-21T04:38:44;100248.25;;;7.03;84.30
79415;BME280;68864;44.972;19.612;2023-11-21T04:41:12;100240.63;;;7.00;84.54
79415;BME280;68864;44.972;19.612;2023-11-21T04:43:39;100245.03;;;7.01;84.82
79415;BME280;68864;44.972;19.612;2023-11-21T04:46:07;100238.78;;;7.04;84.82
79415;BME280;68864;44.972;19.612;2023-11-21T04:48:34;100244.09;;;7.09;84.80
79415;BME280;68864;44.972;19.612;2023-11-21T04:51:01;100240.03;;;7.07;84.71
79415;BME280;68864;44.972;19.612;2023-11-21T04:53:29;100239.94;;;7.03;85.06
79415;BME280;68864;44.972;19.612;2023-11-21T04:55:56;100234.16;;;7.08;84.92
79415;BME280;68864;44.972;19.612;2023-11-21T04:58:24;100237.75;;;7.09;84.72
79415;BME280;68864;44.972;19.612;2023-11-21T05:00:51;100231.72;;;7.07;85.10
79415;BME280;68864;44.972;19.612;2023-11-21T05:03:18;100233.81;;;7.10;84.53
79415;BME280;68864;44.972;19.612;2023-11-21T05:05:45;100231.16;;;7.13;84.14
79415;BME280;68864;44.972;19.612;2023-11-21T05:08:11;100231.72;;;7.19;83.56
79415;BME280;68864;44.972;19.612;2023-11-21T05:10:38;100219.81;;;7.18;83.92
79415;BME280;68864;44.972;19.612;2023-11-21T05:13:06;100222.16;;;7.16;84.21
79415;BME280;68864;44.972;19.612;2023-11-21T05:15:36;100220.63;;;7.19;83.55
79415;BME280;68864;44.972;19.612;2023-11-21T05:18:04;100216.22;;;7.18;84.18
79415;BME280;68864;44.972;19.612;2023-11-21T05:20:31;100215.78;;;7.16;84.06
79415;BME280;68864;44.972;19.612;2023-11-21T05:22:58;100217.03;;;7.18;83.37
79415;BME280;68864;44.972;19.612;2023-11-21T05:25:25;100211.06;;;7.16;83.66
79415;BME280;68864;44.972;19.612;2023-11-21T05:27:52;100213.84;;;7.16;83.30
79415;BME280;68864;44.972;19.612;2023-11-21T05:30:19;100204.03;;;7.07;84.30
79415;BME280;68864;44.972;19.612;2023-11-21T05:32:48;100198.22;;;7.12;83.54
79415;BME280;68864;44.972;19.612;2023-11-21T05:35:15;100194.91;;;7.06;83.64
79415;BME280;68864;44.972;19.612;2023-11-21T05:37:42;100197.22;;;7.04;84.49
79415;BME280;68864;44.972;19.612;2023-11-21T05:40:09;100191.69;;;7.04;83.91
79415;BME280;68864;44.972;19.612;2023-11-21T05:42:36;100199.63;;;7.06;84.01
79415;BME280;68864;44.972;19.612;2023-11-21T05:45:05;100201.81;;;7.12;83.67
79415;BME280;68864;44.972;19.612;2023-11-21T05:47:36;100203.22;;;7.06;83.90
79415;BME280;68864;44.972;19.612;2023-11-21T05:50:07;100214.06;;;7.11;83.30
79415;BME280;68864;44.972;19.612;2023-11-21T05:52:36;100210.59;;;7.14;83.86
79415;BME280;68864;44.972;19.612;2023-11-21T05:55:03;100203.91;;;7.15;83.62
79415;BME280;68864;44.972;19.612;2023-11-21T05:57:32;100206.09;;;7.10;83.10
79415;BME280;68864;44.972;19.612;2023-11-21T05:59:59;100213.94;;;7.20;83.42
79415;BME280;68864;44.972;19.612;2023-11-21T06:02:28;100220.63;;;7.19;83.14
79415;BME280;68864;44.972;19.612;2023-11-21T06:04:55;100189.91;;;7.12;82.69
79415;BME280;68864;44.972;19.612;2023-11-21T06:07:23;100205.28;;;7.22;83.02
79415;BME280;68864;44.972;19.612;2023-11-21T06:09:50;100202.03;;;7.19;82.88
79415;BME280;68864;44.972;19.612;2023-11-21T06:12:17;100200.41;;;7.18;82.60
79415;BME280;68864;44.972;19.612;2023-11-21T06:14:45;100193.28;;;7.17;83.38
79415;BME280;68864;44.972;19.612;2023-11-21T06:17:13;100203.19;;;7.18;83.35
79415;BME280;68864;44.972;19.612;2023-11-21T06:19:40;100202.97;;;7.24;82.66
79415;BME280;68864;44.972;19.612;2023-11-21T06:22:07;100203.19;;;7.18;83.57
79415;BME280;68864;44.972;19.612;2023-11-21T06:24:35;100196.66;;;7.11;83.67
79415;BME280;68864;44.972;19.612;2023-11-21T06:27:03;100192.59;;;7.08;83.19
79415;BME280;68864;44.972;19.612;2023-11-21T06:29:30;100202.84;;;7.20;83.37
79415;BME280;68864;44.972;19.612;2023-11-21T06:31:57;100201.34;;;7.23;83.29
79415;BME280;68864;44.972;19.612;2023-11-21T06:34:24;100204.22;;;7.26;82.81
79415;BME280;68864;44.972;19.612;2023-11-21T06:36:53;100212.31;;;7.31;83.49
79415;BME280;68864;44.972;19.612;2023-11-21T06:39:20;100215.38;;;7.42;82.57
79415;BME280;68864;44.972;19.612;2023-11-21T06:41:49;100210.38;;;7.47;83.29
79415;BME280;68864;44.972;19.612;2023-11-21T06:44:16;100218.22;;;7.57;82.91
79415;BME280;68864;44.972;19.612;2023-11-21T06:46:43;100214.38;;;7.62;81.82
79415;BME280;68864;44.972;19.612;2023-11-21T06:49:10;100214.94;;;7.68;82.13
79415;BME280;68864;44.972;19.612;2023-11-21T06:51:37;100194.03;;;7.70;81.52
79415;BME280;68864;44.972;19.612;2023-11-21T06:54:05;100187.94;;;7.80;81.67
79415;BME280;68864;44.972;19.612;2023-11-21T06:56:32;100195.13;;;7.81;82.24
79415;BME280;68864;44.972;19.612;2023-11-21T06:59:00;100192.53;;;7.88;81.55
79415;BME280;68864;44.972;19.612;2023-11-21T07:01:28;100204.66;;;7.96;81.69
79415;BME280;68864;44.972;19.612;2023-11-21T07:03:55;100211.19;;;8.04;81.87
79415;BME280;68864;44.972;19.612;2023-11-21T07:06:22;100210.47;;;8.07;81.86
79415;BME280;68864;44.972;19.612;2023-11-21T07:08:48;100227.06;;;7.75;83.18
79415;BME280;68864;44.972;19.612;2023-11-21T07:11:15;100233.34;;;7.60;83.47
79415;BME280;68864;44.972;19.612;2023-11-21T07:13:42;100234.69;;;7.66;83.59
79415;BME280;68864;44.972;19.612;2023-11-21T07:16:10;100245.44;;;7.68;83.72
79415;BME280;68864;44.972;19.612;2023-11-21T07:18:37;100253.44;;;7.69;83.87
79415;BME280;68864;44.972;19.612;2023-11-21T07:21:04;100247.38;;;7.39;86.01
79415;BME280;68864;44.972;19.612;2023-11-21T07:23:31;100242.16;;;7.50;83.34
79415;BME280;68864;44.972;19.612;2023-11-21T07:25:58;100249.34;;;7.51;84.26
79415;BME280;68864;44.972;19.612;2023-11-21T07:28:25;100240.50;;;7.61;83.30
79415;BME280;68864;44.972;19.612;2023-11-21T07:30:52;100222.91;;;7.69;83.13
79415;BME280;68864;44.972;19.612;2023-11-21T07:33:20;100218.94;;;7.82;82.11
79415;BME280;68864;44.972;19.612;2023-11-21T07:35:48;100212.84;;;7.92;81.16
79415;BME280;68864;44.972;19.612;2023-11-21T07:38:14;100214.47;;;7.93;81.19
79415;BME280;68864;44.972;19.612;2023-11-21T07:40:41;100212.50;;;7.94;81.76
79415;BME280;68864;44.972;19.612;2023-11-21T07:43:08;100206.97;;;7.94;81.80
79415;BME280;68864;44.972;19.612;2023-11-21T07:45:36;100196.75;;;7.98;82.21
79415;BME280;68864;44.972;19.612;2023-11-21T07:48:03;100189.19;;;8.11;82.39
79415;BME280;68864;44.972;19.612;2023-11-21T07:50:31;100191.38;;;8.05;82.68
79415;BME280;68864;44.972;19.612;2023-11-21T07:52:58;100189.44;;;8.06;83.29
79415;BME280;68864;44.972;19.612;2023-11-21T07:55:25;100200.63;;;8.09;82.56
79415;BME280;68864;44.972;19.612;2023-11-21T07:57:52;100227.25;;;8.10;81.92
79415;BME280;68864;44.972;19.612;2023-11-21T08:00:19;100240.22;;;8.22;82.71
79415;BME280;68864;44.972;19.612;2023-11-21T08:02:46;100237.00;;;8.20;83.52
79415;BME280;68864;44.972;19.612;2023-11-21T08:05:13;100219.03;;;8.29;82.87
79415;BME280;68864;44.972;19.612;2023-11-21T08:07:42;100203.06;;;8.26;83.69
79415;BME280;68864;44.972;19.612;2023-11-21T08:10:09;100196.50;;;8.31;83.70
79415;BME280;68864;44.972;19.612;2023-11-21T08:12:37;100219.59;;;8.35;83.95
79415;BME280;68864;44.972;19.612;2023-11-21T08:15:05;100223.53;;;8.50;83.74
79415;BME280;68864;44.972;19.612;2023-11-21T08:17:33;100215.91;;;8.62;83.62
79415;BME280;68864;44.972;19.612;2023-11-21T08:20:00;100189.94;;;8.70;84.08
79415;BME280;68864;44.972;19.612;2023-11-21T08:22:28;100186.06;;;8.75;82.99
79415;BME280;68864;44.972;19.612;2023-11-21T08:24:57;100206.66;;;8.90;82.45
79415;BME280;68864;44.972;19.612;2023-11-21T08:27:24;100202.66;;;9.06;83.20
79415;BME280;68864;44.972;19.612;2023-11-21T08:29:51;100207.91;;;9.27;82.33
79415;BME280;68864;44.972;19.612;2023-11-21T08:32:18;100188.31;;;9.39;82.36
79415;BME280;68864;44.972;19.612;2023-11-21T08:34:45;100180.19;;;9.50;82.31
79415;BME280;68864;44.972;19.612;2023-11-21T08:37:15;100178.34;;;9.57;81.89
79415;BME280;68864;44.972;19.612;2023-11-21T08:39:43;100171.19;;;9.56;82.37
79415;BME280;68864;44.972;19.612;2023-11-21T08:42:11;100181.06;;;9.73;82.21
79415;BME280;68864;44.972;19.612;2023-11-21T08:44:38;100174.16;;;9.86;81.54
79415;BME280;68864;44.972;19.612;2023-11-21T08:47:05;100169.88;;;9.92;81.01
79415;BME280;68864;44.972;19.612;2023-11-21T08:49:32;100157.59;;;9.93;81.01
79415;BME280;68864;44.972;19.612;2023-11-21T08:51:59;100162.03;;;9.98;80.67
79415;BME280;68864;44.972;19.612;2023-11-21T08:54:25;100160.13;;;10.02;80.45
79415;BME280;68864;44.972;19.612;2023-11-21T08:56:52;100160.41;;;10.16;80.72
79415;BME280;68864;44.972;19.612;2023-11-21T08:59:21;100153.53;;;10.10;82.46
79415;BME280;68864;44.972;19.612;2023-11-21T09:01:48;100142.72;;;10.28;80.97
79415;BME280;68864;44.972;19.612;2023-11-21T09:04:15;100139.25;;;10.34;80.26
79415;BME280;68864;44.972;19.612;2023-11-21T09:06:41;100134.59;;;10.42;79.92
79415;BME280;68864;44.972;19.612;2023-11-21T09:09:08;100127.91;;;10.47;79.94
79415;BME280;68864;44.972;19.612;2023-11-21T09:11:35;100131.25;;;10.56;79.85
79415;BME280;68864;44.972;19.612;2023-11-21T09:14:02;100127.81;;;10.66;79.56
79415;BME280;68864;44.972;19.612;2023-11-21T09:16:31;100122.41;;;10.77;79.44
79415;BME280;68864;44.972;19.612;2023-11-21T09:18:58;100121.00;;;10.90;78.76
79415;BME280;68864;44.972;19.612;2023-11-21T09:21:25;100119.53;;;10.99;79.08
79415;BME280;68864;44.972;19.612;2023-11-21T09:23:53;100126.34;;;11.02;78.21
79415;BME280;68864;44.972;19.612;2023-11-21T09:26:19;100115.56;;;11.00;78.97
79415;BME280;68864;44.972;19.612;2023-11-21T09:28:46;100114.81;;;11.03;79.04
79415;BME280;68864;44.972;19.612;2023-11-21T09:31:13;100108.91;;;11.08;78.72
79415;BME280;68864;44.972;19.612;2023-11-21T09:33:42;100100.88;;;11.03;78.90
79415;BME280;68864;44.972;19.612;2023-11-21T09:36:11;100101.75;;;11.11;78.83
79415;BME280;68864;44.972;19.612;2023-11-21T09:38:39;100094.63;;;11.13;79.41
79415;BME280;68864;44.972;19.612;2023-11-21T09:41:14;100093.44;;;11.14;79.36
79415;BME280;68864;44.972;19.612;2023-11-21T09:43:44;100103.78;;;11.14;79.85
79415;BME280;68864;44.972;19.612;2023-11-21T09:46:13;100103.03;;;11.17;80.04
79415;BME280;68864;44.972;19.612;2023-11-21T09:48:48;100101.47;;;11.20;80.19
79415;BME280;68864;44.972;19.612;2023-11-21T09:51:19;100091.94;;;11.21;80.83
79415;BME280;68864;44.972;19.612;2023-11-21T09:53:49;100097.88;;;11.19;80.30
79415;BME280;68864;44.972;19.612;2023-11-21T09:56:17;100097.94;;;11.23;80.02
79415;BME280;68864;44.972;19.612;2023-11-21T09:58:51;100094.75;;;11.24;80.32
79415;BME280;68864;44.972;19.612;2023-11-21T10:01:19;100093.53;;;11.22;80.73
79415;BME280;68864;44.972;19.612;2023-11-21T10:03:48;100097.06;;;11.19;81.04
79415;BME280;68864;44.972;19.612;2023-11-21T10:06:17;100096.03;;;11.00;82.63
79415;BME280;68864;44.972;19.612;2023-11-21T10:08:45;100091.72;;;11.03;82.33
79415;BME280;68864;44.972;19.612;2023-11-21T10:11:14;100101.25;;;11.02;81.89
79415;BME280;68864;44.972;19.612;2023-11-21T10:13:42;100098.13;;;11.07;81.99
79415;BME280;68864;44.972;19.612;2023-11-21T10:16:14;100089.91;;;10.88;83.01
79415;BME280;68864;44.972;19.612;2023-11-21T10:18:42;100094.66;;;10.87;82.99
79415;BME280;68864;44.972;19.612;2023-11-21T10:21:12;100086.09;;;10.73;84.51
79415;BME280;68864;44.972;19.612;2023-11-21T10:23:39;100093.63;;;10.43;86.30
79415;BME280;68864;44.972;19.612;2023-11-21T10:26:07;100091.66;;;10.43;87.11
79415;BME280;68864;44.972;19.612;2023-11-21T10:28:41;100092.75;;;10.39;87.61
79415;BME280;68864;44.972;19.612;2023-11-21T10:31:08;100082.72;;;10.34;87.52
79415;BME280;68864;44.972;19.612;2023-11-21T10:33:35;100094.00;;;10.41;87.73
79415;BME280;68864;44.972;19.612;2023-11-21T10:36:02;100092.84;;;10.46;87.46
79415;BME280;68864;44.972;19.612;2023-11-21T10:38:33;100089.44;;;10.56;86.96
79415;BME280;68864;44.972;19.612;2023-11-21T10:41:10;100084.88;;;10.70;86.08
79415;BME280;68864;44.972;19.612;2023-11-21T10:43:39;100081.06;;;10.82;85.82
79415;BME280;68864;44.972;19.612;2023-11-21T10:46:06;100081.16;;;10.89;85.30
79415;BME280;68864;44.972;19.612;2023-11-21T10:48:33;100079.66;;;10.95;85.38
79415;BME280;68864;44.972;19.612;2023-11-21T10:51:01;100087.59;;;10.93;86.62
79415;BME280;68864;44.972;19.612;2023-11-21T10:53:34;100088.84;;;10.99;84.68
79415;BME280;68864;44.972;19.612;2023-11-21T10:56:06;100082.84;;;10.97;83.85
79415;BME280;68864;44.972;19.612;2023-11-21T10:58:35;100090.84;;;10.99;84.33
79415;BME280;68864;44.972;19.612;2023-11-21T11:01:05;100094.81;;;10.98;84.05
79415;BME280;68864;44.972;19.612;2023-11-21T11:03:36;100091.63;;;10.96;84.13
79415;BME280;68864;44.972;19.612;2023-11-21T11:06:05;100078.78;;;10.91;83.95
79415;BME280;68864;44.972;19.612;2023-11-21T11:08:38;100084.78;;;10.93;83.81
79415;BME280;68864;44.972;19.612;2023-11-21T11:11:06;100087.84;;;10.55;85.89
79415;BME280;68864;44.972;19.612;2023-11-21T11:13:33;100078.81;;;10.65;84.77
79415;BME280;68864;44.972;19.612;2023-11-21T11:16:00;100077.72;;;10.69;84.80
79415;BME280;68864;44.972;19.612;2023-11-21T11:18:29;100075.38;;;10.75;85.07
79415;BME280;68864;44.972;19.612;2023-11-21T11:21:01;100077.84;;;10.80;85.42
79415;BME280;68864;44.972;19.612;2023-11-21T11:23:45;100077.84;;;10.80;85.42
79415;BME280;68864;44.972;19.612;2023-11-21T11:26:35;100064.13;;;10.68;84.92
79415;BME280;68864;44.972;19.612;2023-11-21T11:29:10;100079.03;;;10.53;86.52
79415;BME280;68864;44.972;19.612;2023-11-21T11:31:52;100081.38;;;10.51;86.44
79415;BME280;68864;44.972;19.612;2023-11-21T11:34:28;100074.16;;;10.46;87.20
79415;BME280;68864;44.972;19.612;2023-11-21T11:37:01;100080.59;;;10.50;86.54
79415;BME280;68864;44.972;19.612;2023-11-21T11:39:35;100074.97;;;10.47;86.91
79415;BME280;68864;44.972;19.612;2023-11-21T11:42:04;100080.09;;;10.45;86.86
79415;BME280;68864;44.972;19.612;2023-11-21T11:44:47;100088.41;;;10.41;87.99
79415;BME280;68864;44.972;19.612;2023-11-21T11:47:19;100087.81;;;10.28;87.90
79415;BME280;68864;44.972;19.612;2023-11-21T11:50:03;100082.50;;;10.20;88.87
79415;BME280;68864;44.972;19.612;2023-11-21T11:52:40;100090.84;;;10.20;88.51
79415;BME280;68864;44.972;19.612;2023-11-21T11:55:09;100077.38;;;10.22;88.65
79415;BME280;68864;44.972;19.612;2023-11-21T11:57:37;100085.78;;;10.25;88.41
79415;BME280;68864;44.972;19.612;2023-11-21T12:00:12;100081.81;;;10.26;88.40
79415;BME280;68864;44.972;19.612;2023-11-21T12:02:41;100083.34;;;10.24;88.51
79415;BME280;68864;44.972;19.612;2023-11-21T12:05:10;100082.97;;;10.25;89.03
79415;BME280;68864;44.972;19.612;2023-11-21T12:07:45;100081.88;;;10.07;89.58
79415;BME280;68864;44.972;19.612;2023-11-21T12:10:15;100075.97;;;10.12;88.38
79415;BME280;68864;44.972;19.612;2023-11-21T12:12:47;100078.91;;;10.19;87.45
79415;BME280;68864;44.972;19.612;2023-11-21T12:15:14;100074.50;;;10.18;87.54
79415;BME280;68864;44.972;19.612;2023-11-21T12:17:41;100069.00;;;9.99;89.31
79415;BME280;68864;44.972;19.612;2023-11-21T12:20:10;100075.25;;;9.92;89.40
79415;BME280;68864;44.972;19.612;2023-11-21T12:22:45;100075.13;;;9.63;91.15
79415;BME280;68864;44.972;19.612;2023-11-21T12:25:15;100074.72;;;9.64;91.19
79415;BME280;68864;44.972;19.612;2023-11-21T12:27:44;100070.50;;;9.70;91.16
79415;BME280;68864;44.972;19.612;2023-11-21T12:30:13;100072.22;;;9.78;90.89
79415;BME280;68864;44.972;19.612;2023-11-21T12:32:41;100071.53;;;9.85;90.50
79415;BME280;68864;44.972;19.612;2023-11-21T12:35:08;100057.84;;;9.53;92.87
79415;BME280;68864;44.972;19.612;2023-11-21T12:37:36;100067.44;;;9.56;91.66
79415;BME280;68864;44.972;19.612;2023-11-21T12:40:04;100066.50;;;9.71;90.35
79415;BME280;68864;44.972;19.612;2023-11-21T12:42:33;100064.31;;;9.80;90.65
79415;BME280;68864;44.972;19.612;2023-11-21T12:45:18;100054.09;;;9.88;89.98
79415;BME280;68864;44.972;19.612;2023-11-21T12:47:46;100065.97;;;9.85;89.08
79415;BME280;68864;44.972;19.612;2023-11-21T12:50:13;100069.84;;;9.57;91.18
79415;BME280;68864;44.972;19.612;2023-11-21T12:52:42;100063.31;;;9.69;89.84